Time;durP1;ratioP1;P1;durP2;ratioP2;P2;SDS_P1;SDS_P2;PMS_P1;PMS_P2;Temp;Humidity;BMP_temperature;BMP_pressure;BME280_temperature;BME280_humidity;BME280_pressure;Samples;Min_cycle;Max_cycle;Signal;HPM_P1;HPM_P2
2022/10/04 00:01:57;;;;;;;6.22;2.03;;;;;;;;;;4968327;28;20067;-84
2022/10/04 00:04:39;;;;;;;7.68;2.00;;;;;;;;;;4970192;28;20038;-84
2022/10/04 00:07:43;;;;;;;3.22;1.52;;;;;;;;;;4984021;28;20061;-84
2022/10/04 00:10:22;;;;;;;4.30;1.75;;;;;;;;;;5045662;28;20053;-84
2022/10/04 00:12:52;;;;;;;7.43;1.73;;;;;;;;;;5029339;28;20045;-84
2022/10/04 00:15:24;;;;;;;4.07;1.58;;;;;;;;;;5043977;28;20041;-84
2022/10/04 00:18:22;;;;;;;6.32;1.70;;;;;;;;;;5046497;28;20045;-85
2022/10/04 00:20:56;;;;;;;3.67;1.25;;;;;;;;;;5046080;28;20033;-84
2022/10/04 00:23:48;;;;;;;8.88;1.60;;;;;;;;;;5013340;28;20079;-84
2022/10/04 00:26:21;;;;;;;3.47;1.52;;;;;;;;;;5042489;28;20420;-84
2022/10/04 00:28:50;;;;;;;4.93;1.45;;;;;;;;;;5042941;28;20714;-85
2022/10/04 00:31:26;;;;;;;3.15;1.38;;;;;;;;;;5044998;28;20107;-84
2022/10/04 00:34:02;;;;;;;5.85;1.80;;;;;;;;;;5045173;28;20045;-85
2022/10/04 00:36:57;;;;;;;8.80;1.65;;;;;;;;;;5025811;28;20044;-84
2022/10/04 00:39:38;;;;;;;3.55;1.58;;;;;;;;;;5030942;28;20036;-84
2022/10/04 00:42:32;;;;;;;8.32;1.55;;;;;;;;;;5025992;28;20091;-84
2022/10/04 00:45:07;;;;;;;6.50;1.65;;;;;;;;;;5043291;28;20041;-84
2022/10/04 00:47:44;;;;;;;4.82;1.50;;;;;;;;;;5027251;28;20037;-84
2022/10/04 00:50:39;;;;;;;4.80;1.45;;;;;;;;;;5040305;28;20033;-85
2022/10/04 00:53:17;;;;;;;4.03;1.30;;;;;;;;;;5044930;28;20612;-84
2022/10/04 00:55:50;;;;;;;7.35;1.90;;;;;;;;;;5043593;28;20382;-84
2022/10/04 00:58:32;;;;;;;7.70;1.67;;;;;;;;;;5026272;28;20048;-84
2022/10/04 01:01:02;;;;;;;4.43;1.38;;;;;;;;;;5039955;28;20037;-84
2022/10/04 01:03:37;;;;;;;4.90;1.30;;;;;;;;;;5043790;28;20127;-85
2022/10/04 01:06:10;;;;;;;7.85;1.60;;;;;;;;;;5044821;28;20128;-85
2022/10/04 01:08:50;;;;;;;3.03;1.15;;;;;;;;;;5026948;28;20369;-84
2022/10/04 01:11:29;;;;;;;9.70;1.77;;;;;;;;;;5030460;28;20124;-84
2022/10/04 01:14:00;;;;;;;3.70;1.55;;;;;;;;;;5045654;28;20741;-84
2022/10/04 01:16:32;;;;;;;5.07;1.38;;;;;;;;;;5042884;28;20036;-84
2022/10/04 01:19:23;;;;;;;2.83;1.48;;;;;;;;;;5047204;28;20030;-84
2022/10/04 01:22:30;;;;;;;6.40;1.63;;;;;;;;;;5045336;28;20033;-84
2022/10/04 01:24:57;;;;;;;3.55;1.58;;;;;;;;;;4970822;28;20057;-85
2022/10/04 01:27:51;;;;;;;5.07;1.30;;;;;;;;;;4983294;28;20046;-84
2022/10/04 01:30:19;;;;;;;5.88;1.48;;;;;;;;;;4982771;28;20047;-84
2022/10/04 01:32:47;;;;;;;7.40;1.50;;;;;;;;;;4969974;28;20630;-84
2022/10/04 01:35:17;;;;;;;5.75;1.30;;;;;;;;;;4969391;28;20042;-84
2022/10/04 01:37:43;;;;;;;6.85;1.67;;;;;;;;;;4971125;28;20049;-85
2022/10/04 01:40:11;;;;;;;4.47;1.50;;;;;;;;;;4983302;28;20557;-84
2022/10/04 01:42:55;;;;;;;7.88;1.60;;;;;;;;;;4969706;28;20113;-84
2022/10/04 01:48:34;;;;;;;4.18;1.23;;;;;;;;;;4987433;28;20047;-84
2022/10/04 01:51:31;;;;;;;5.13;1.40;;;;;;;;;;5044965;28;20554;-84
2022/10/04 01:54:22;;;;;;;6.40;1.80;;;;;;;;;;5028750;28;20037;-84
2022/10/04 01:57:01;;;;;;;8.32;1.70;;;;;;;;;;5044484;28;20681;-85
2022/10/04 01:59:39;;;;;;;4.60;1.42;;;;;;;;;;5045017;28;20167;-84
2022/10/04 02:02:14;;;;;;;7.22;1.98;;;;;;;;;;5022810;28;20048;-84
2022/10/04 02:04:43;;;;;;;5.05;1.52;;;;;;;;;;5042846;28;20033;-84
2022/10/04 02:07:14;;;;;;;4.28;1.40;;;;;;;;;;5042584;28;20051;-85
2022/10/04 02:09:46;;;;;;;5.18;1.70;;;;;;;;;;5044015;28;20945;-84
2022/10/04 02:12:16;;;;;;;6.15;1.60;;;;;;;;;;5040951;28;20119;-84
2022/10/04 02:14:52;;;;;;;6.68;1.58;;;;;;;;;;5041188;28;20358;-84
2022/10/04 02:17:36;;;;;;;6.47;1.60;;;;;;;;;;5043223;28;20047;-84
2022/10/04 02:20:30;;;;;;;6.57;1.83;;;;;;;;;;5045724;28;20677;-84
2022/10/04 02:23:03;;;;;;;6.05;1.80;;;;;;;;;;5029937;28;20064;-84
2022/10/04 02:25:31;;;;;;;5.88;1.60;;;;;;;;;;5027284;28;20140;-84
2022/10/04 02:28:09;;;;;;;5.07;1.65;;;;;;;;;;5045134;28;20467;-84
2022/10/04 02:30:41;;;;;;;5.38;1.55;;;;;;;;;;5043817;28;20037;-84
2022/10/04 02:33:19;;;;;;;4.30;1.60;;;;;;;;;;5045199;28;20098;-84
2022/10/04 02:35:47;;;;;;;6.60;2.00;;;;;;;;;;5028803;28;20060;-84
2022/10/04 02:38:22;;;;;;;5.85;1.67;;;;;;;;;;5029083;28;20566;-84
2022/10/04 02:41:25;;;;;;;5.93;2.08;;;;;;;;;;5022742;28;20049;-85
2022/10/04 02:44:17;;;;;;;5.55;2.03;;;;;;;;;;5046638;28;20048;-84
2022/10/04 02:46:56;;;;;;;8.13;1.98;;;;;;;;;;5043610;28;20536;-84
2022/10/04 02:49:37;;;;;;;9.20;2.30;;;;;;;;;;5048532;28;20407;-85
2022/10/04 02:52:12;;;;;;;4.72;2.13;;;;;;;;;;5048422;28;20128;-84
2022/10/04 02:54:47;;;;;;;5.10;2.10;;;;;;;;;;5048130;28;20068;-85
2022/10/04 02:57:22;;;;;;;5.20;2.10;;;;;;;;;;5046950;28;20037;-84
2022/10/04 03:00:00;;;;;;;5.38;1.90;;;;;;;;;;5029928;28;20136;-85
2022/10/04 03:02:29;;;;;;;6.25;2.17;;;;;;;;;;5048765;28;20033;-84
2022/10/04 03:05:04;;;;;;;12.57;2.60;;;;;;;;;;5028232;28;20041;-84
2022/10/04 03:07:38;;;;;;;9.10;2.13;;;;;;;;;;5014419;28;20778;-85
2022/10/04 03:10:12;;;;;;;6.68;2.42;;;;;;;;;;5047978;28;20063;-84
2022/10/04 03:12:41;;;;;;;7.07;2.63;;;;;;;;;;5048421;28;20036;-84
2022/10/04 03:15:11;;;;;;;6.22;2.40;;;;;;;;;;5046813;28;20650;-84
2022/10/04 03:17:41;;;;;;;6.38;2.08;;;;;;;;;;5048569;28;20119;-84
2022/10/04 03:20:14;;;;;;;5.95;2.15;;;;;;;;;;5046017;28;20127;-85
2022/10/04 03:22:44;;;;;;;7.57;1.85;;;;;;;;;;5048183;28;20488;-84
2022/10/04 03:25:52;;;;;;;6.15;2.25;;;;;;;;;;5047421;28;20069;-84
2022/10/04 03:28:24;;;;;;;6.95;1.92;;;;;;;;;;5047936;28;20053;-84
2022/10/04 03:30:51;;;;;;;4.55;1.88;;;;;;;;;;5030110;28;20045;-84
2022/10/04 03:33:22;;;;;;;8.20;2.42;;;;;;;;;;5031051;28;20126;-85
2022/10/04 03:35:55;;;;;;;9.10;2.13;;;;;;;;;;5048967;28;20041;-84
2022/10/04 03:38:25;;;;;;;7.45;2.38;;;;;;;;;;5049980;28;20073;-84
2022/10/04 03:40:59;;;;;;;5.10;2.22;;;;;;;;;;5047781;28;20504;-85
2022/10/04 03:43:30;;;;;;;7.93;3.10;;;;;;;;;;5047066;28;20048;-84
2022/10/04 03:46:06;;;;;;;5.38;2.22;;;;;;;;;;5048027;28;20132;-84
2022/10/04 03:48:54;;;;;;;3.13;1.90;;;;;;;;;;5029852;28;20041;-84
2022/10/04 03:51:25;;;;;;;5.40;1.98;;;;;;;;;;5046152;28;20043;-84
2022/10/04 03:57:14;;;;;;;7.43;2.30;;;;;;;;;;5030971;28;20037;-84
2022/10/04 03:59:42;;;;;;;8.52;2.50;;;;;;;;;;5046651;28;20102;-84
2022/10/04 04:02:25;;;;;;;7.40;2.40;;;;;;;;;;5047264;28;20123;-85
2022/10/04 04:04:55;;;;;;;5.47;2.33;;;;;;;;;;5047853;28;20072;-84
2022/10/04 04:07:38;;;;;;;7.40;2.90;;;;;;;;;;5023137;28;20033;-84
2022/10/04 04:10:38;;;;;;;7.72;2.50;;;;;;;;;;5046735;28;20067;-84
2022/10/04 04:13:26;;;;;;;6.82;2.03;;;;;;;;;;5048653;28;20471;-84
2022/10/04 04:16:01;;;;;;;7.18;2.28;;;;;;;;;;5024450;28;20025;-84
2022/10/04 04:18:33;;;;;;;7.32;2.58;;;;;;;;;;5029811;28;20150;-84
2022/10/04 04:21:03;;;;;;;6.63;2.50;;;;;;;;;;5030669;28;20524;-85
2022/10/04 04:23:37;;;;;;;4.70;2.05;;;;;;;;;;5026599;28;20132;-84
2022/10/04 04:26:24;;;;;;;4.65;2.08;;;;;;;;;;5047577;28;20091;-85
2022/10/04 04:29:21;;;;;;;7.78;2.47;;;;;;;;;;5023557;28;20038;-84
2022/10/04 04:32:19;;;;;;;8.93;2.40;;;;;;;;;;5031822;28;20516;-84
2022/10/04 04:34:51;;;;;;;7.10;2.80;;;;;;;;;;5027059;28;20048;-84
2022/10/04 04:37:43;;;;;;;4.70;2.22;;;;;;;;;;5043883;28;20033;-85
2022/10/04 04:40:24;;;;;;;5.80;2.10;;;;;;;;;;5047608;28;20040;-84
2022/10/04 04:43:01;;;;;;;7.30;2.45;;;;;;;;;;5046294;28;20516;-85
2022/10/04 04:45:30;;;;;;;5.57;2.00;;;;;;;;;;5048633;28;20037;-84
2022/10/04 04:48:00;;;;;;;10.10;2.22;;;;;;;;;;5046604;28;20040;-84
2022/10/04 04:50:56;;;;;;;5.45;2.20;;;;;;;;;;5047376;28;20041;-84
2022/10/04 04:53:30;;;;;;;7.00;2.85;;;;;;;;;;5028209;28;20051;-85
2022/10/04 04:56:04;;;;;;;4.55;2.53;;;;;;;;;;5043494;28;20725;-84
2022/10/04 04:58:40;;;;;;;6.80;2.50;;;;;;;;;;5046657;28;20037;-84
2022/10/04 05:01:34;;;;;;;7.90;2.58;;;;;;;;;;5047648;28;20094;-84
2022/10/04 05:04:08;;;;;;;12.10;2.65;;;;;;;;;;5044947;28;20045;-84
2022/10/04 05:06:38;;;;;;;5.05;2.28;;;;;;;;;;5047053;28;20037;-84
2022/10/04 05:09:20;;;;;;;5.65;2.30;;;;;;;;;;5027205;28;20045;-84
2022/10/04 05:11:49;;;;;;;6.13;2.38;;;;;;;;;;5027947;28;20052;-85
2022/10/04 05:14:18;;;;;;;7.20;2.30;;;;;;;;;;5049073;28;20044;-84
2022/10/04 05:16:53;;;;;;;7.00;2.50;;;;;;;;;;5047080;28;20044;-83
2022/10/04 05:19:45;;;;;;;9.93;2.40;;;;;;;;;;5047769;28;20094;-84
2022/10/04 05:22:42;;;;;;;9.50;2.67;;;;;;;;;;5028744;28;20660;-84
2022/10/04 05:25:22;;;;;;;10.50;2.47;;;;;;;;;;5042635;28;20041;-84
2022/10/04 05:27:50;;;;;;;6.82;2.10;;;;;;;;;;5040220;28;20137;-84
2022/10/04 05:30:52;;;;;;;8.90;2.20;;;;;;;;;;5027780;28;20045;-83
2022/10/04 05:33:39;;;;;;;4.63;2.50;;;;;;;;;;5042798;28;20037;-84
2022/10/04 05:36:12;;;;;;;7.68;2.42;;;;;;;;;;5044541;28;20068;-84
2022/10/04 05:39:11;;;;;;;5.30;2.40;;;;;;;;;;5047779;28;20130;-83
2022/10/04 05:41:56;;;;;;;7.38;2.53;;;;;;;;;;5011338;28;20057;-83
2022/10/04 05:44:55;;;;;;;9.40;2.20;;;;;;;;;;5043815;28;20547;-84
2022/10/04 05:47:29;;;;;;;6.82;2.50;;;;;;;;;;5025469;28;20037;-83
2022/10/04 05:50:39;;;;;;;7.43;2.65;;;;;;;;;;5046449;28;20611;-83
2022/10/04 05:53:32;;;;;;;6.88;2.10;;;;;;;;;;5028636;28;20554;-83
2022/10/04 05:56:18;;;;;;;4.70;2.20;;;;;;;;;;5046911;28;20160;-84
2022/10/04 05:59:10;;;;;;;5.30;1.90;;;;;;;;;;5045633;28;20045;-83
2022/10/04 06:01:43;;;;;;;4.97;2.42;;;;;;;;;;5042366;28;20037;-83
2022/10/04 06:04:11;;;;;;;6.60;2.03;;;;;;;;;;5039409;28;20133;-83
2022/10/04 06:06:56;;;;;;;5.43;2.00;;;;;;;;;;5019264;28;20037;-83
2022/10/04 06:09:26;;;;;;;5.05;2.25;;;;;;;;;;5044675;28;20041;-83
2022/10/04 06:12:54;;;;;;;6.72;2.20;;;;;;;;;;5028066;28;20396;-84
2022/10/04 06:15:52;;;;;;;5.25;2.40;;;;;;;;;;5042738;28;20041;-84
2022/10/04 06:18:55;;;;;;;8.75;3.80;;;;;;;;;;5036643;28;20041;-84
2022/10/04 06:21:27;;;;;;;6.90;3.70;;;;;;;;;;4946050;28;20627;-83
2022/10/04 06:24:34;;;;;;;10.15;4.55;;;;;;;;;;4947208;28;20043;-83
2022/10/04 06:27:18;;;;;;;10.00;3.90;;;;;;;;;;4948593;28;20043;-84
2022/10/04 06:29:53;;;;;;;11.07;4.05;;;;;;;;;;4948244;28;20062;-84
2022/10/04 06:32:48;;;;;;;9.35;4.25;;;;;;;;;;4950432;28;20043;-84
2022/10/04 06:35:34;;;;;;;6.03;3.92;;;;;;;;;;4949201;28;20049;-84
2022/10/04 06:38:26;;;;;;;8.23;3.15;;;;;;;;;;4934558;29;20122;-84
2022/10/04 06:41:23;;;;;;;5.97;3.00;;;;;;;;;;4947408;28;20047;-85
2022/10/04 06:44:08;;;;;;;10.20;3.25;;;;;;;;;;4941654;28;20051;-84
2022/10/04 06:46:50;;;;;;;6.75;2.90;;;;;;;;;;4946705;28;20159;-84
2022/10/04 06:49:26;;;;;;;8.35;2.72;;;;;;;;;;4948147;28;20043;-84
2022/10/04 06:52:25;;;;;;;7.07;3.20;;;;;;;;;;4930308;29;20519;-84
2022/10/04 06:55:27;;;;;;;9.80;3.17;;;;;;;;;;4943692;28;20059;-84
2022/10/04 06:58:48;;;;;;;6.70;3.03;;;;;;;;;;5016938;28;20428;-85
2022/10/04 07:01:33;;;;;;;7.35;3.40;;;;;;;;;;5027267;28;20033;-84
2022/10/04 07:04:27;;;;;;;8.07;3.80;;;;;;;;;;5049940;28;20515;-83
2022/10/04 07:10:25;;;;;;;9.10;3.47;;;;;;;;;;5043511;28;20515;-84
2022/10/04 07:13:02;;;;;;;8.07;3.90;;;;;;;;;;5015779;28;20095;-84
2022/10/04 07:15:36;;;;;;;8.38;4.03;;;;;;;;;;5029556;28;20045;-84
2022/10/04 07:18:12;;;;;;;8.43;3.67;;;;;;;;;;5048961;28;20065;-84
2022/10/04 07:20:42;;;;;;;13.05;3.83;;;;;;;;;;5048595;28;20047;-84
2022/10/04 07:23:21;;;;;;;10.15;3.83;;;;;;;;;;5046710;28;20033;-84
2022/10/04 07:26:01;;;;;;;13.73;4.22;;;;;;;;;;5029535;28;20065;-84
2022/10/04 07:31:29;;;;;;;12.57;5.13;;;;;;;;;;5045322;28;20037;-84
2022/10/04 07:34:10;;;;;;;11.63;4.13;;;;;;;;;;5044277;28;20496;-84
2022/10/04 07:36:44;;;;;;;13.48;4.78;;;;;;;;;;5011244;28;20041;-84
2022/10/04 07:39:28;;;;;;;15.77;5.28;;;;;;;;;;5014589;28;20047;-84
2022/10/04 07:42:04;;;;;;;14.98;5.35;;;;;;;;;;5030821;28;20492;-84
2022/10/04 07:44:40;;;;;;;12.80;4.70;;;;;;;;;;5049344;28;20497;-84
2022/10/04 07:47:24;;;;;;;11.65;4.82;;;;;;;;;;5047182;28;20029;-83
2022/10/04 07:49:53;;;;;;;16.17;5.43;;;;;;;;;;5043884;28;20037;-84
2022/10/04 07:52:56;;;;;;;11.88;5.45;;;;;;;;;;5047716;28;20127;-84
2022/10/04 07:55:41;;;;;;;16.88;5.80;;;;;;;;;;5048408;28;20067;-83
2022/10/04 07:58:28;;;;;;;9.02;4.70;;;;;;;;;;5048627;28;20032;-84
2022/10/04 08:01:06;;;;;;;10.45;5.10;;;;;;;;;;5045251;28;20041;-84
2022/10/04 08:03:58;;;;;;;20.10;6.07;;;;;;;;;;5031200;28;20055;-84
2022/10/04 08:06:42;;;;;;;14.38;5.75;;;;;;;;;;5045572;28;20493;-84
2022/10/04 08:09:42;;;;;;;15.98;5.65;;;;;;;;;;5045935;28;20037;-84
2022/10/04 08:12:29;;;;;;;12.82;5.85;;;;;;;;;;5039233;28;20110;-84
2022/10/04 08:15:12;;;;;;;8.95;5.07;;;;;;;;;;5044214;28;20099;-84
2022/10/04 08:18:17;;;;;;;11.80;5.20;;;;;;;;;;5044877;28;20036;-84
2022/10/04 08:20:51;;;;;;;12.60;5.45;;;;;;;;;;5045306;28;20059;-84
2022/10/04 08:24:42;;;;;;;15.63;6.70;;;;;;;;;;5031706;28;20613;-83
2022/10/04 08:27:32;;;;;;;14.25;5.78;;;;;;;;;;4921847;29;20059;-83
2022/10/04 08:30:14;;;;;;;16.48;5.97;;;;;;;;;;4939984;29;20146;-84
2022/10/04 08:33:15;;;;;;;14.60;6.38;;;;;;;;;;4936315;29;20055;-84
2022/10/04 08:36:12;;;;;;;13.10;5.75;;;;;;;;;;4938130;29;20154;-84
2022/10/04 08:38:53;;;;;;;16.45;6.38;;;;;;;;;;4841712;29;20581;-84
2022/10/04 08:41:33;;;;;;;11.48;6.05;;;;;;;;;;4845929;29;20410;-84
2022/10/04 08:44:09;;;;;;;12.93;6.38;;;;;;;;;;4844177;29;20145;-84
2022/10/04 08:47:06;;;;;;;15.02;6.28;;;;;;;;;;4842967;29;20563;-84
2022/10/04 08:49:56;;;;;;;13.30;6.47;;;;;;;;;;4841670;29;20065;-84
2022/10/04 08:52:45;;;;;;;18.50;6.47;;;;;;;;;;4843444;29;20053;-83
2022/10/04 08:55:43;;;;;;;20.63;6.50;;;;;;;;;;4844165;29;20052;-83
2022/10/04 08:58:17;;;;;;;14.80;6.78;;;;;;;;;;4862315;29;20139;-84
2022/10/04 09:01:27;;;;;;;24.42;7.18;;;;;;;;;;4882158;29;20045;-84
2022/10/04 09:04:40;;;;;;;16.63;7.22;;;;;;;;;;4897625;28;20150;-84
2022/10/04 09:07:26;;;;;;;18.65;6.85;;;;;;;;;;4872692;29;20132;-84
2022/10/04 09:10:05;;;;;;;15.55;6.57;;;;;;;;;;4871772;29;20061;-84
2022/10/04 09:12:48;;;;;;;16.77;6.55;;;;;;;;;;4870662;29;20065;-84
2022/10/04 09:15:20;;;;;;;20.48;7.28;;;;;;;;;;4888887;29;20059;-83
2022/10/04 09:18:11;;;;;;;13.48;6.40;;;;;;;;;;4924033;29;20104;-84
2022/10/04 09:21:10;;;;;;;18.58;6.55;;;;;;;;;;4927209;29;20044;-84
2022/10/04 09:24:04;;;;;;;16.95;6.72;;;;;;;;;;4912935;29;20099;-84
2022/10/04 09:27:35;;;;;;;13.48;6.13;;;;;;;;;;4925823;29;20056;-85
2022/10/04 09:30:41;;;;;;;15.25;6.57;;;;;;;;;;4914560;29;20063;-84
2022/10/04 09:33:29;;;;;;;17.35;6.15;;;;;;;;;;4926469;29;20051;-84
2022/10/04 09:36:15;;;;;;;20.55;6.57;;;;;;;;;;4914417;29;20509;-84
2022/10/04 09:39:15;;;;;;;16.58;6.30;;;;;;;;;;4925213;29;20051;-84
2022/10/04 09:42:26;;;;;;;13.63;5.53;;;;;;;;;;4925709;29;20102;-84
2022/10/04 09:45:20;;;;;;;12.35;5.55;;;;;;;;;;5009703;28;20140;-84
2022/10/04 09:48:24;;;;;;;13.15;5.72;;;;;;;;;;5044778;28;20041;-84
2022/10/04 09:51:24;;;;;;;14.20;5.32;;;;;;;;;;5045140;28;20064;-84
2022/10/04 09:54:36;;;;;;;8.85;4.88;;;;;;;;;;5046981;28;20064;-84
2022/10/04 09:57:28;;;;;;;13.98;6.03;;;;;;;;;;5043895;28;20658;-84
2022/10/04 10:00:13;;;;;;;10.45;5.43;;;;;;;;;;5043470;28;20417;-84
2022/10/04 10:03:07;;;;;;;13.10;5.25;;;;;;;;;;5046215;28;20033;-84
2022/10/04 10:06:06;;;;;;;18.92;5.57;;;;;;;;;;5046274;28;20510;-84
2022/10/04 10:08:47;;;;;;;15.00;5.13;;;;;;;;;;5041934;28;20048;-84
2022/10/04 10:14:54;;;;;;;12.90;4.95;;;;;;;;;;5044915;28;20378;-82
2022/10/04 10:17:21;;;;;;;12.15;4.63;;;;;;;;;;5048389;28;20094;-84
2022/10/04 10:20:21;;;;;;;18.40;4.35;;;;;;;;;;5041136;28;20041;-84
2022/10/04 10:23:26;;;;;;;14.15;4.68;;;;;;;;;;5042224;28;20493;-84
2022/10/04 10:26:30;;;;;;;9.93;4.28;;;;;;;;;;5024983;28;20055;-84
2022/10/04 10:29:36;;;;;;;12.60;4.70;;;;;;;;;;5042569;28;20041;-84
2022/10/04 10:32:37;;;;;;;11.15;4.55;;;;;;;;;;5040816;28;20445;-84
2022/10/04 10:35:32;;;;;;;13.95;4.93;;;;;;;;;;5042519;28;20048;-84
2022/10/04 10:38:11;;;;;;;16.90;4.95;;;;;;;;;;5024170;28;20048;-84
2022/10/04 10:41:07;;;;;;;12.55;4.93;;;;;;;;;;5041657;28;20033;-84
2022/10/04 10:43:50;;;;;;;15.07;5.05;;;;;;;;;;5008267;28;20107;-84
2022/10/04 10:46:42;;;;;;;13.40;5.57;;;;;;;;;;5045303;28;20049;-84
2022/10/04 10:49:38;;;;;;;24.60;6.00;;;;;;;;;;5043258;28;20045;-84
2022/10/04 10:52:19;;;;;;;13.43;5.05;;;;;;;;;;4965588;28;20565;-84
2022/10/04 10:54:49;;;;;;;16.65;5.22;;;;;;;;;;4946731;28;20047;-83
2022/10/04 10:58:00;;;;;;;12.95;4.90;;;;;;;;;;4955477;28;20050;-84
2022/10/04 11:00:30;;;;;;;17.98;6.00;;;;;;;;;;4955662;28;20101;-83
2022/10/04 11:03:04;;;;;;;10.48;4.88;;;;;;;;;;4944567;28;20051;-84
2022/10/04 11:05:56;;;;;;;15.88;6.15;;;;;;;;;;4965194;28;20050;-84
2022/10/04 11:08:54;;;;;;;15.20;5.63;;;;;;;;;;4965428;28;20434;-84
2022/10/04 11:11:40;;;;;;;21.17;5.90;;;;;;;;;;4966311;28;20046;-84
2022/10/04 11:14:33;;;;;;;17.08;5.50;;;;;;;;;;4952696;28;20034;-84
2022/10/04 11:17:32;;;;;;;19.05;5.60;;;;;;;;;;4968345;28;20043;-84
2022/10/04 11:20:24;;;;;;;11.43;4.85;;;;;;;;;;4969056;28;20054;-84
2022/10/04 11:23:29;;;;;;;16.58;4.72;;;;;;;;;;4970070;28;20046;-84
2022/10/04 11:27:02;;;;;;;10.63;4.30;;;;;;;;;;4956248;28;20045;-84
2022/10/04 11:29:29;;;;;;;11.70;5.00;;;;;;;;;;5019257;28;20049;-84
2022/10/04 11:32:00;;;;;;;10.95;5.05;;;;;;;;;;5048637;28;20037;-84
2022/10/04 11:34:49;;;;;;;13.00;5.05;;;;;;;;;;5052911;28;20091;-84
2022/10/04 11:37:32;;;;;;;14.70;5.15;;;;;;;;;;5029665;28;20040;-83
2022/10/04 11:40:15;;;;;;;13.63;4.47;;;;;;;;;;5030697;28;20045;-84
2022/10/04 11:43:24;;;;;;;17.52;4.18;;;;;;;;;;5046249;28;20076;-84
2022/10/04 11:46:16;;;;;;;13.25;4.72;;;;;;;;;;5045999;28;20095;-84
2022/10/04 11:49:01;;;;;;;15.15;4.80;;;;;;;;;;5029743;28;20041;-83
2022/10/04 11:51:57;;;;;;;12.27;4.13;;;;;;;;;;5047439;28;20037;-84
2022/10/04 11:54:58;;;;;;;13.23;4.45;;;;;;;;;;5047085;28;20067;-84
2022/10/04 11:57:36;;;;;;;12.15;4.45;;;;;;;;;;4984350;28;20051;-84
2022/10/04 12:00:13;;;;;;;20.60;4.10;;;;;;;;;;4984091;28;20122;-84
2022/10/04 12:03:09;;;;;;;15.32;4.40;;;;;;;;;;4982846;28;20090;-84
2022/10/04 12:05:47;;;;;;;13.85;3.70;;;;;;;;;;4987013;28;20133;-84
2022/10/04 12:09:04;;;;;;;8.13;3.50;;;;;;;;;;4985338;28;20050;-84
2022/10/04 12:14:58;;;;;;;11.13;3.95;;;;;;;;;;4914875;29;20060;-84
2022/10/04 12:17:49;;;;;;;11.93;3.30;;;;;;;;;;4911856;29;20043;-84
2022/10/04 12:20:37;;;;;;;11.40;2.97;;;;;;;;;;4916257;29;20139;-84
2022/10/04 12:23:39;;;;;;;8.38;2.50;;;;;;;;;;4917108;29;20071;-84
2022/10/04 12:26:31;;;;;;;11.43;2.85;;;;;;;;;;4911570;29;20056;-84
2022/10/04 12:29:35;;;;;;;8.73;2.67;;;;;;;;;;4919371;29;20169;-84
2022/10/04 12:32:16;;;;;;;7.30;2.17;;;;;;;;;;4894138;29;20542;-84
2022/10/04 12:35:30;;;;;;;7.38;2.10;;;;;;;;;;4947093;28;20055;-84
2022/10/04 12:38:22;;;;;;;5.68;2.28;;;;;;;;;;4962841;28;20654;-83
2022/10/04 12:41:10;;;;;;;8.18;1.83;;;;;;;;;;4965727;28;20154;-84
2022/10/04 12:43:59;;;;;;;8.23;2.58;;;;;;;;;;4959792;28;20051;-84
2022/10/04 12:46:28;;;;;;;8.15;2.35;;;;;;;;;;4963831;28;20161;-84
2022/10/04 12:49:08;;;;;;;8.50;2.17;;;;;;;;;;5045404;28;20065;-83
2022/10/04 12:51:49;;;;;;;8.20;2.78;;;;;;;;;;5026251;28;20041;-84
2022/10/04 12:54:42;;;;;;;9.98;3.08;;;;;;;;;;5043010;28;20174;-84
2022/10/04 12:57:40;;;;;;;8.02;2.20;;;;;;;;;;4968553;28;20107;-84
2022/10/04 13:00:19;;;;;;;5.60;1.80;;;;;;;;;;4956763;28;20376;-84
2022/10/04 13:03:07;;;;;;;9.52;2.47;;;;;;;;;;4958535;28;20153;-84
2022/10/04 13:05:46;;;;;;;8.00;2.15;;;;;;;;;;4979208;28;20166;-84
2022/10/04 13:08:30;;;;;;;6.22;2.13;;;;;;;;;;4965047;28;20470;-83
2022/10/04 13:11:32;;;;;;;6.47;2.25;;;;;;;;;;4978675;28;20054;-84
2022/10/04 13:14:27;;;;;;;5.97;2.33;;;;;;;;;;4977156;28;20571;-84
2022/10/04 13:17:59;;;;;;;9.18;2.40;;;;;;;;;;4978491;28;20501;-84
2022/10/04 13:20:36;;;;;;;12.52;2.90;;;;;;;;;;4980614;28;20529;-84
2022/10/04 13:23:24;;;;;;;5.57;2.28;;;;;;;;;;4981252;28;20133;-84
2022/10/04 13:26:32;;;;;;;6.30;2.08;;;;;;;;;;4966785;28;20086;-84
2022/10/04 13:29:37;;;;;;;7.78;2.58;;;;;;;;;;4980171;28;20050;-84
2022/10/04 13:32:26;;;;;;;6.57;2.30;;;;;;;;;;4978964;28;20046;-84
2022/10/04 13:35:12;;;;;;;7.18;2.45;;;;;;;;;;5026537;28;20057;-84
2022/10/04 13:38:06;;;;;;;11.15;2.85;;;;;;;;;;5044446;28;20087;-84
2022/10/04 13:41:32;;;;;;;8.35;2.35;;;;;;;;;;5040091;28;20048;-84
2022/10/04 13:44:06;;;;;;;9.70;2.72;;;;;;;;;;4949495;28;20067;-84
2022/10/04 13:46:52;;;;;;;9.77;2.45;;;;;;;;;;4960715;28;20051;-84
2022/10/04 13:49:44;;;;;;;8.20;2.83;;;;;;;;;;4961567;28;20066;-84
2022/10/04 13:58:40;;;;;;;6.40;2.42;;;;;;;;;;4962668;28;20057;-84
2022/10/04 14:01:34;;;;;;;9.23;2.70;;;;;;;;;;4964749;28;20217;-84
2022/10/04 14:04:29;;;;;;;7.80;2.72;;;;;;;;;;4951000;28;20150;-83
2022/10/04 14:07:20;;;;;;;6.68;2.00;;;;;;;;;;4947753;28;20054;-83
2022/10/04 14:10:08;;;;;;;5.95;2.15;;;;;;;;;;4964288;28;20047;-83
2022/10/04 14:12:47;;;;;;;7.28;2.58;;;;;;;;;;4959806;28;20098;-83
2022/10/04 14:15:52;;;;;;;6.50;2.20;;;;;;;;;;4958854;28;20074;-84
2022/10/04 14:19:05;;;;;;;4.90;1.88;;;;;;;;;;4966065;28;20591;-82
2022/10/04 14:21:42;;;;;;;5.53;2.10;;;;;;;;;;5039031;28;20467;-83
2022/10/04 14:24:26;;;;;;;7.05;2.28;;;;;;;;;;5045510;28;20043;-83
2022/10/04 14:27:19;;;;;;;9.70;2.33;;;;;;;;;;5043682;28;20766;-83
2022/10/04 14:30:17;;;;;;;7.88;2.10;;;;;;;;;;5039955;28;20086;-83
2022/10/04 14:33:16;;;;;;;4.10;2.08;;;;;;;;;;5040159;28;20098;-83
2022/10/04 14:35:52;;;;;;;7.32;2.42;;;;;;;;;;5011675;28;20037;-84
2022/10/04 14:38:45;;;;;;;10.00;2.45;;;;;;;;;;5040891;28;20041;-83
2022/10/04 14:41:51;;;;;;;10.20;2.33;;;;;;;;;;5039106;28;20117;-83
2022/10/04 14:44:48;;;;;;;6.00;2.40;;;;;;;;;;5022536;28;20067;-83
2022/10/04 14:48:03;;;;;;;6.07;2.10;;;;;;;;;;5045570;28;20060;-83
2022/10/04 14:54:02;;;;;;;6.07;1.70;;;;;;;;;;5028024;28;20041;-83
2022/10/04 14:56:48;;;;;;;7.22;2.38;;;;;;;;;;5040257;28;20037;-83
2022/10/04 14:59:38;;;;;;;4.68;1.80;;;;;;;;;;5044032;28;20048;-83
2022/10/04 15:02:21;;;;;;;4.47;2.30;;;;;;;;;;5045901;28;20045;-83
2022/10/04 15:05:18;;;;;;;4.95;1.90;;;;;;;;;;5042960;28;20120;-83
2022/10/04 15:07:50;;;;;;;7.10;2.28;;;;;;;;;;5046226;28;20087;-84
2022/10/04 15:10:31;;;;;;;7.68;2.33;;;;;;;;;;5022374;28;20061;-83
2022/10/04 15:13:48;;;;;;;6.18;1.80;;;;;;;;;;5044505;28;20033;-83
2022/10/04 15:16:32;;;;;;;6.18;2.10;;;;;;;;;;5043448;28;20095;-83
2022/10/04 15:19:21;;;;;;;3.88;1.92;;;;;;;;;;5047259;28;20037;-83
2022/10/04 15:21:53;;;;;;;7.15;2.28;;;;;;;;;;5029104;28;20508;-83
2022/10/04 15:24:43;;;;;;;8.27;2.80;;;;;;;;;;5032591;28;20063;-83
2022/10/04 15:27:23;;;;;;;7.40;2.50;;;;;;;;;;5045911;28;20095;-83
2022/10/04 15:29:59;;;;;;;9.90;2.40;;;;;;;;;;5046224;28;20131;-84
2022/10/04 15:33:12;;;;;;;5.30;2.70;;;;;;;;;;5043750;28;20033;-85
2022/10/04 15:35:49;;;;;;;10.10;2.80;;;;;;;;;;5041717;28;20103;-83
2022/10/04 15:38:48;;;;;;;10.65;2.42;;;;;;;;;;5046023;28;20052;-84
2022/10/04 15:41:26;;;;;;;8.32;2.40;;;;;;;;;;5045995;28;20037;-84
2022/10/04 15:44:14;;;;;;;5.25;2.60;;;;;;;;;;5031454;28;20036;-84
2022/10/04 15:47:11;;;;;;;8.77;2.40;;;;;;;;;;5031778;28;20045;-84
2022/10/04 15:50:16;;;;;;;6.45;1.80;;;;;;;;;;5043170;28;20041;-84
2022/10/04 15:53:09;;;;;;;5.72;2.30;;;;;;;;;;5045799;28;20071;-83
2022/10/04 15:55:41;;;;;;;5.32;2.35;;;;;;;;;;5042831;28;20084;-83
2022/10/04 15:58:16;;;;;;;7.05;2.00;;;;;;;;;;5046145;28;20041;-83
2022/10/04 16:01:15;;;;;;;6.07;2.28;;;;;;;;;;5045478;28;20130;-83
2022/10/04 16:03:52;;;;;;;8.65;2.65;;;;;;;;;;5046772;28;20122;-83
2022/10/04 16:06:49;;;;;;;5.10;2.55;;;;;;;;;;5046034;28;20073;-83
2022/10/04 16:10:07;;;;;;;7.57;2.67;;;;;;;;;;5048695;28;20104;-82
2022/10/04 16:13:13;;;;;;;6.57;2.58;;;;;;;;;;4964579;28;20062;-83
2022/10/04 16:15:44;;;;;;;4.32;2.42;;;;;;;;;;4965639;28;20046;-83
2022/10/04 16:18:50;;;;;;;7.25;2.40;;;;;;;;;;4960782;28;20667;-82
2022/10/04 16:21:47;;;;;;;6.70;2.47;;;;;;;;;;4963693;28;20063;-83
2022/10/04 16:24:21;;;;;;;5.72;2.40;;;;;;;;;;4966024;28;20047;-82
2022/10/04 16:26:49;;;;;;;9.30;2.78;;;;;;;;;;4962557;28;20065;-83
2022/10/04 16:29:43;;;;;;;7.03;2.35;;;;;;;;;;4964669;28;20058;-83
2022/10/04 16:35:40;;;;;;;9.05;2.47;;;;;;;;;;4964739;28;20113;-84
2022/10/04 16:38:25;;;;;;;5.43;2.80;;;;;;;;;;4962587;28;20354;-84
2022/10/04 16:41:11;;;;;;;10.90;3.10;;;;;;;;;;4963806;28;20047;-85
2022/10/04 16:43:53;;;;;;;9.73;3.22;;;;;;;;;;4964792;28;20055;-85
2022/10/04 16:46:37;;;;;;;8.48;2.75;;;;;;;;;;4963126;28;20043;-84
2022/10/04 16:49:46;;;;;;;11.43;3.10;;;;;;;;;;4998351;28;20052;-85
2022/10/04 16:52:57;;;;;;;8.23;2.65;;;;;;;;;;5046629;28;20037;-85
2022/10/04 16:55:41;;;;;;;9.05;3.92;;;;;;;;;;5028915;28;20064;-85
2022/10/04 16:58:25;;;;;;;5.63;2.97;;;;;;;;;;5046456;28;20040;-84
2022/10/04 17:01:21;;;;;;;7.63;3.10;;;;;;;;;;5026789;28;20060;-84
2022/10/04 17:04:07;;;;;;;9.85;3.40;;;;;;;;;;5007619;28;20493;-84